sensor_id;sensor_type;location;lat;lon;timestamp;P1;durP1;ratioP1;P2;durP2;ratioP2
40471;SDS011;26174;42.908;23.800;2023-04-25T00:01:37;0.00;;;0.00;;
40471;SDS011;26174;42.908;23.800;2023-04-25T00:04:03;0.60;;;0.30;;
40471;SDS011;26174;42.908;23.800;2023-04-25T00:06:31;0.30;;;0.30;;
40471;SDS011;26174;42.908;23.800;2023-04-25T00:08:57;0.32;;;0.20;;
40471;SDS011;26174;42.908;23.800;2023-04-25T00:11:23;0.32;;;0.20;;
40471;SDS011;26174;42.908;23.800;2023-04-25T00:13:49;0.20;;;0.15;;
40471;SDS011;26174;42.908;23.800;2023-04-25T00:16:15;0.20;;;0.20;;
40471;SDS011;26174;42.908;23.800;2023-04-25T00:18:42;0.30;;;0.10;;
40471;SDS011;26174;42.908;23.800;2023-04-25T00:21:08;1.08;;;0.30;;
40471;SDS011;26174;42.908;23.800;2023-04-25T00:23:33;0.30;;;0.25;;
40471;SDS011;26174;42.908;23.800;2023-04-25T00:26:01;0.00;;;0.00;;
40471;SDS011;26174;42.908;23.800;2023-04-25T00:28:27;0.22;;;0.22;;
40471;SDS011;26174;42.908;23.800;2023-04-25T00:30:53;0.43;;;0.10;;
40471;SDS011;26174;42.908;23.800;2023-04-25T00:33:19;0.60;;;0.60;;
40471;SDS011;26174;42.908;23.800;2023-04-25T00:35:44;0.52;;;0.43;;
40471;SDS011;26174;42.908;23.800;2023-04-25T00:38:31;0.20;;;0.20;;
40471;SDS011;26174;42.908;23.800;2023-04-25T00:41:16;0.00;;;0.00;;
40471;SDS011;26174;42.908;23.800;2023-04-25T00:43:41;0.00;;;0.00;;
40471;SDS011;26174;42.908;23.800;2023-04-25T00:46:07;0.10;;;0.10;;
40471;SDS011;26174;42.908;23.800;2023-04-25T00:48:32;0.08;;;0.08;;
40471;SDS011;26174;42.908;23.800;2023-04-25T00:50:58;0.50;;;0.40;;
40471;SDS011;26174;42.908;23.800;2023-04-25T00:53:26;0.43;;;0.40;;
40471;SDS011;26174;42.908;23.800;2023-04-25T00:55:54;0.40;;;0.30;;
40471;SDS011;26174;42.908;23.800;2023-04-25T00:58:20;0.00;;;0.00;;
40471;SDS011;26174;42.908;23.800;2023-04-25T01:00:47;0.25;;;0.22;;
40471;SDS011;26174;42.908;23.800;2023-04-25T01:03:13;0.22;;;0.17;;
40471;SDS011;26174;42.908;23.800;2023-04-25T01:05:41;1.65;;;0.63;;
40471;SDS011;26174;42.908;23.800;2023-04-25T01:08:07;0.10;;;0.10;;
40471;SDS011;26174;42.908;23.800;2023-04-25T01:10:32;1.05;;;0.57;;
40471;SDS011;26174;42.908;23.800;2023-04-25T01:12:58;0.10;;;0.10;;
40471;SDS011;26174;42.908;23.800;2023-04-25T01:18:14;0.17;;;0.08;;
40471;SDS011;26174;42.908;23.800;2023-04-25T01:20:40;0.03;;;0.03;;
40471;SDS011;26174;42.908;23.800;2023-04-25T01:23:06;0.40;;;0.20;;
40471;SDS011;26174;42.908;23.800;2023-04-25T01:25:32;0.20;;;0.20;;
40471;SDS011;26174;42.908;23.800;2023-04-25T01:27:58;0.32;;;0.32;;
40471;SDS011;26174;42.908;23.800;2023-04-25T01:30:25;0.20;;;0.20;;
40471;SDS011;26174;42.908;23.800;2023-04-25T01:32:51;0.00;;;0.00;;
40471;SDS011;26174;42.908;23.800;2023-04-25T01:35:19;0.75;;;0.47;;
40471;SDS011;26174;42.908;23.800;2023-04-25T01:37:45;0.30;;;0.30;;
40471;SDS011;26174;42.908;23.800;2023-04-25T01:40:10;0.20;;;0.20;;
40471;SDS011;26174;42.908;23.800;2023-04-25T01:42:38;0.93;;;0.35;;
40471;SDS011;26174;42.908;23.800;2023-04-25T01:45:05;0.40;;;0.40;;
40471;SDS011;26174;42.908;23.800;2023-04-25T01:47:31;0.20;;;0.20;;
40471;SDS011;26174;42.908;23.800;2023-04-25T01:49:57;0.68;;;0.20;;
40471;SDS011;26174;42.908;23.800;2023-04-25T01:52:23;0.22;;;0.20;;
40471;SDS011;26174;42.908;23.800;2023-04-25T01:54:48;0.00;;;0.00;;
40471;SDS011;26174;42.908;23.800;2023-04-25T01:57:15;0.20;;;0.20;;
40471;SDS011;26174;42.908;23.800;2023-04-25T01:59:41;1.00;;;0.50;;
40471;SDS011;26174;42.908;23.800;2023-04-25T02:02:07;0.75;;;0.57;;
40471;SDS011;26174;42.908;23.800;2023-04-25T02:04:32;0.22;;;0.22;;
40471;SDS011;26174;42.908;23.800;2023-04-25T02:06:58;0.57;;;0.35;;
40471;SDS011;26174;42.908;23.800;2023-04-25T02:09:24;0.03;;;0.03;;
40471;SDS011;26174;42.908;23.800;2023-04-25T02:11:50;0.20;;;0.20;;
40471;SDS011;26174;42.908;23.800;2023-04-25T02:14:15;1.25;;;0.52;;
40471;SDS011;26174;42.908;23.800;2023-04-25T02:16:41;0.00;;;0.00;;
40471;SDS011;26174;42.908;23.800;2023-04-25T02:19:08;0.20;;;0.10;;
40471;SDS011;26174;42.908;23.800;2023-04-25T02:21:35;1.75;;;0.57;;
40471;SDS011;26174;42.908;23.800;2023-04-25T02:24:01;0.30;;;0.22;;
40471;SDS011;26174;42.908;23.800;2023-04-25T02:26:26;0.77;;;0.73;;
40471;SDS011;26174;42.908;23.800;2023-04-25T02:28:52;0.85;;;0.47;;
40471;SDS011;26174;42.908;23.800;2023-04-25T02:31:17;0.17;;;0.15;;
40471;SDS011;26174;42.908;23.800;2023-04-25T02:33:43;0.10;;;0.10;;
40471;SDS011;26174;42.908;23.800;2023-04-25T02:36:09;0.25;;;0.25;;
40471;SDS011;26174;42.908;23.800;2023-04-25T02:38:35;0.88;;;0.70;;
40471;SDS011;26174;42.908;23.800;2023-04-25T02:41:00;0.50;;;0.50;;
40471;SDS011;26174;42.908;23.800;2023-04-25T02:43:26;0.20;;;0.20;;
40471;SDS011;26174;42.908;23.800;2023-04-25T02:45:51;0.20;;;0.20;;
40471;SDS011;26174;42.908;23.800;2023-04-25T02:48:17;0.40;;;0.20;;
40471;SDS011;26174;42.908;23.800;2023-04-25T02:50:42;0.40;;;0.40;;
40471;SDS011;26174;42.908;23.800;2023-04-25T02:53:08;1.98;;;1.35;;
40471;SDS011;26174;42.908;23.800;2023-04-25T02:55:34;0.98;;;0.55;;
40471;SDS011;26174;42.908;23.800;2023-04-25T02:57:59;0.25;;;0.22;;
40471;SDS011;26174;42.908;23.800;2023-04-25T03:00:25;2.90;;;1.10;;
40471;SDS011;26174;42.908;23.800;2023-04-25T03:02:51;0.85;;;0.43;;
40471;SDS011;26174;42.908;23.800;2023-04-25T03:05:16;0.20;;;0.20;;
40471;SDS011;26174;42.908;23.800;2023-04-25T03:07:42;0.10;;;0.10;;
40471;SDS011;26174;42.908;23.800;2023-04-25T03:10:09;0.93;;;0.73;;
40471;SDS011;26174;42.908;23.800;2023-04-25T03:12:35;0.20;;;0.20;;
40471;SDS011;26174;42.908;23.800;2023-04-25T03:15:00;0.10;;;0.10;;
40471;SDS011;26174;42.908;23.800;2023-04-25T03:17:26;0.13;;;0.13;;
40471;SDS011;26174;42.908;23.800;2023-04-25T03:19:51;1.35;;;0.85;;
40471;SDS011;26174;42.908;23.800;2023-04-25T03:22:17;0.32;;;0.32;;
40471;SDS011;26174;42.908;23.800;2023-04-25T03:24:43;0.30;;;0.30;;
40471;SDS011;26174;42.908;23.800;2023-04-25T03:27:08;0.25;;;0.15;;
40471;SDS011;26174;42.908;23.800;2023-04-25T03:29:34;4.70;;;1.92;;
40471;SDS011;26174;42.908;23.800;2023-04-25T03:31:59;2.85;;;2.55;;
40471;SDS011;26174;42.908;23.800;2023-04-25T03:34:25;3.95;;;2.58;;
40471;SDS011;26174;42.908;23.800;2023-04-25T03:36:51;13.70;;;1.63;;
40471;SDS011;26174;42.908;23.800;2023-04-25T03:39:16;1.45;;;0.85;;
40471;SDS011;26174;42.908;23.800;2023-04-25T03:41:42;0.95;;;0.45;;
40471;SDS011;26174;42.908;23.800;2023-04-25T03:44:07;0.68;;;0.43;;
40471;SDS011;26174;42.908;23.800;2023-04-25T03:46:33;0.68;;;0.65;;
40471;SDS011;26174;42.908;23.800;2023-04-25T03:48:58;1.40;;;0.93;;
40471;SDS011;26174;42.908;23.800;2023-04-25T03:51:24;0.32;;;0.20;;
40471;SDS011;26174;42.908;23.800;2023-04-25T03:53:51;0.50;;;0.50;;
40471;SDS011;26174;42.908;23.800;2023-04-25T03:56:16;1.60;;;0.98;;
40471;SDS011;26174;42.908;23.800;2023-04-25T03:58:42;2.90;;;1.05;;
40471;SDS011;26174;42.908;23.800;2023-04-25T04:01:08;1.45;;;0.90;;
40471;SDS011;26174;42.908;23.800;2023-04-25T04:03:34;0.93;;;0.68;;
40471;SDS011;26174;42.908;23.800;2023-04-25T04:06:06;1.55;;;0.95;;
40471;SDS011;26174;42.908;23.800;2023-04-25T04:08:32;3.47;;;0.75;;
40471;SDS011;26174;42.908;23.800;2023-04-25T04:10:58;0.57;;;0.50;;
40471;SDS011;26174;42.908;23.800;2023-04-25T04:13:25;0.63;;;0.35;;
40471;SDS011;26174;42.908;23.800;2023-04-25T04:15:51;0.30;;;0.30;;
40471;SDS011;26174;42.908;23.800;2023-04-25T04:18:17;3.83;;;1.30;;
40471;SDS011;26174;42.908;23.800;2023-04-25T04:20:42;0.43;;;0.35;;
40471;SDS011;26174;42.908;23.800;2023-04-25T04:23:08;0.93;;;0.75;;
40471;SDS011;26174;42.908;23.800;2023-04-25T04:25:33;0.52;;;0.40;;
40471;SDS011;26174;42.908;23.800;2023-04-25T04:27:59;2.15;;;1.40;;
40471;SDS011;26174;42.908;23.800;2023-04-25T04:30:26;3.58;;;0.95;;
40471;SDS011;26174;42.908;23.800;2023-04-25T04:32:54;0.50;;;0.50;;
40471;SDS011;26174;42.908;23.800;2023-04-25T04:35:21;2.08;;;1.00;;
40471;SDS011;26174;42.908;23.800;2023-04-25T04:37:47;1.38;;;0.90;;
40471;SDS011;26174;42.908;23.800;2023-04-25T04:40:13;1.20;;;0.73;;
40471;SDS011;26174;42.908;23.800;2023-04-25T04:42:43;0.40;;;0.30;;
40471;SDS011;26174;42.908;23.800;2023-04-25T04:45:10;1.75;;;0.70;;
40471;SDS011;26174;42.908;23.800;2023-04-25T04:47:36;0.55;;;0.55;;
40471;SDS011;26174;42.908;23.800;2023-04-25T04:50:02;0.85;;;0.85;;
40471;SDS011;26174;42.908;23.800;2023-04-25T04:52:29;0.50;;;0.50;;
40471;SDS011;26174;42.908;23.800;2023-04-25T04:54:55;0.80;;;0.75;;
40471;SDS011;26174;42.908;23.800;2023-04-25T04:57:20;0.17;;;0.08;;
40471;SDS011;26174;42.908;23.800;2023-04-25T04:59:46;0.98;;;0.82;;
40471;SDS011;26174;42.908;23.800;2023-04-25T05:02:11;0.63;;;0.52;;
40471;SDS011;26174;42.908;23.800;2023-04-25T05:04:37;2.55;;;0.60;;
40471;SDS011;26174;42.908;23.800;2023-04-25T05:07:02;1.30;;;1.08;;
40471;SDS011;26174;42.908;23.800;2023-04-25T05:09:28;0.43;;;0.43;;
40471;SDS011;26174;42.908;23.800;2023-04-25T05:11:53;2.17;;;0.73;;
40471;SDS011;26174;42.908;23.800;2023-04-25T05:14:20;0.38;;;0.35;;
40471;SDS011;26174;42.908;23.800;2023-04-25T05:16:46;2.63;;;0.73;;
40471;SDS011;26174;42.908;23.800;2023-04-25T05:19:12;1.40;;;0.63;;
40471;SDS011;26174;42.908;23.800;2023-04-25T05:21:38;0.10;;;0.10;;
40471;SDS011;26174;42.908;23.800;2023-04-25T05:24:03;0.40;;;0.40;;
40471;SDS011;26174;42.908;23.800;2023-04-25T05:26:29;0.70;;;0.25;;
40471;SDS011;26174;42.908;23.800;2023-04-25T05:28:58;0.17;;;0.17;;
40471;SDS011;26174;42.908;23.800;2023-04-25T05:31:23;1.65;;;0.30;;
40471;SDS011;26174;42.908;23.800;2023-04-25T05:33:49;22.38;;;0.80;;
40471;SDS011;26174;42.908;23.800;2023-04-25T05:36:15;0.65;;;0.50;;
40471;SDS011;26174;42.908;23.800;2023-04-25T05:38:40;0.10;;;0.10;;
40471;SDS011;26174;42.908;23.800;2023-04-25T05:41:06;0.52;;;0.52;;
40471;SDS011;26174;42.908;23.800;2023-04-25T05:43:32;0.15;;;0.15;;
40471;SDS011;26174;42.908;23.800;2023-04-25T05:45:57;0.77;;;0.77;;
40471;SDS011;26174;42.908;23.800;2023-04-25T05:48:23;0.90;;;0.75;;
40471;SDS011;26174;42.908;23.800;2023-04-25T05:50:48;1.20;;;0.40;;
40471;SDS011;26174;42.908;23.800;2023-04-25T05:53:14;0.32;;;0.32;;
40471;SDS011;26174;42.908;23.800;2023-04-25T05:55:39;0.45;;;0.30;;
40471;SDS011;26174;42.908;23.800;2023-04-25T05:58:05;0.22;;;0.22;;
40471;SDS011;26174;42.908;23.800;2023-04-25T06:00:34;1.35;;;0.85;;
40471;SDS011;26174;42.908;23.800;2023-04-25T06:02:59;4.18;;;0.98;;
40471;SDS011;26174;42.908;23.800;2023-04-25T06:05:25;3.13;;;1.45;;
40471;SDS011;26174;42.908;23.800;2023-04-25T06:07:50;1.85;;;1.63;;
40471;SDS011;26174;42.908;23.800;2023-04-25T06:10:16;1.50;;;0.93;;
40471;SDS011;26174;42.908;23.800;2023-04-25T06:12:41;0.20;;;0.20;;
40471;SDS011;26174;42.908;23.800;2023-04-25T06:15:07;0.35;;;0.30;;
40471;SDS011;26174;42.908;23.800;2023-04-25T06:17:33;0.10;;;0.10;;
40471;SDS011;26174;42.908;23.800;2023-04-25T06:19:58;0.17;;;0.17;;
40471;SDS011;26174;42.908;23.800;2023-04-25T06:22:24;0.60;;;0.40;;
40471;SDS011;26174;42.908;23.800;2023-04-25T06:24:50;0.57;;;0.55;;
40471;SDS011;26174;42.908;23.800;2023-04-25T06:27:15;2.40;;;0.98;;
40471;SDS011;26174;42.908;23.800;2023-04-25T06:29:41;1.02;;;0.55;;
40471;SDS011;26174;42.908;23.800;2023-04-25T06:32:06;1.90;;;0.82;;
40471;SDS011;26174;42.908;23.800;2023-04-25T06:34:31;0.90;;;0.90;;
40471;SDS011;26174;42.908;23.800;2023-04-25T06:36:57;0.80;;;0.65;;
40471;SDS011;26174;42.908;23.800;2023-04-25T06:39:23;2.30;;;1.48;;
40471;SDS011;26174;42.908;23.800;2023-04-25T06:41:49;2.30;;;0.95;;
40471;SDS011;26174;42.908;23.800;2023-04-25T06:44:15;5.45;;;2.75;;
40471;SDS011;26174;42.908;23.800;2023-04-25T06:46:40;0.30;;;0.30;;
40471;SDS011;26174;42.908;23.800;2023-04-25T06:49:06;12.57;;;3.33;;
40471;SDS011;26174;42.908;23.800;2023-04-25T06:51:31;3.35;;;2.35;;
40471;SDS011;26174;42.908;23.800;2023-04-25T06:53:57;31.77;;;3.20;;
40471;SDS011;26174;42.908;23.800;2023-04-25T06:56:22;0.77;;;0.77;;
40471;SDS011;26174;42.908;23.800;2023-04-25T06:58:48;1.35;;;1.25;;
40471;SDS011;26174;42.908;23.800;2023-04-25T07:01:14;4.57;;;1.90;;
40471;SDS011;26174;42.908;23.800;2023-04-25T07:03:40;1.50;;;1.13;;
40471;SDS011;26174;42.908;23.800;2023-04-25T07:06:06;2.40;;;1.60;;
40471;SDS011;26174;42.908;23.800;2023-04-25T07:08:34;0.80;;;0.70;;
40471;SDS011;26174;42.908;23.800;2023-04-25T07:11:00;6.63;;;2.10;;
40471;SDS011;26174;42.908;23.800;2023-04-25T07:13:25;2.45;;;1.92;;
40471;SDS011;26174;42.908;23.800;2023-04-25T07:15:51;0.90;;;0.60;;
40471;SDS011;26174;42.908;23.800;2023-04-25T07:18:16;3.33;;;1.48;;
40471;SDS011;26174;42.908;23.800;2023-04-25T07:20:42;0.00;;;0.00;;
40471;SDS011;26174;42.908;23.800;2023-04-25T07:23:07;0.40;;;0.40;;
40471;SDS011;26174;42.908;23.800;2023-04-25T07:25:36;1.80;;;0.88;;
40471;SDS011;26174;42.908;23.800;2023-04-25T07:28:01;1.00;;;0.88;;
40471;SDS011;26174;42.908;23.800;2023-04-25T07:30:27;1.85;;;1.60;;
40471;SDS011;26174;42.908;23.800;2023-04-25T07:32:53;3.75;;;0.68;;
40471;SDS011;26174;42.908;23.800;2023-04-25T07:35:18;0.65;;;0.52;;
40471;SDS011;26174;42.908;23.800;2023-04-25T07:37:44;0.22;;;0.20;;
40471;SDS011;26174;42.908;23.800;2023-04-25T07:40:09;0.70;;;0.70;;
40471;SDS011;26174;42.908;23.800;2023-04-25T07:42:35;0.52;;;0.52;;
40471;SDS011;26174;42.908;23.800;2023-04-25T07:45:01;0.20;;;0.10;;
40471;SDS011;26174;42.908;23.800;2023-04-25T07:47:28;0.17;;;0.17;;
40471;SDS011;26174;42.908;23.800;2023-04-25T07:49:53;0.20;;;0.20;;
40471;SDS011;26174;42.908;23.800;2023-04-25T07:52:19;0.10;;;0.10;;
40471;SDS011;26174;42.908;23.800;2023-04-25T07:54:44;0.00;;;0.00;;
40471;SDS011;26174;42.908;23.800;2023-04-25T07:57:10;0.95;;;0.40;;
40471;SDS011;26174;42.908;23.800;2023-04-25T07:59:35;1.00;;;0.30;;
40471;SDS011;26174;42.908;23.800;2023-04-25T08:02:01;0.30;;;0.30;;
40471;SDS011;26174;42.908;23.800;2023-04-25T08:04:27;0.20;;;0.13;;
40471;SDS011;26174;42.908;23.800;2023-04-25T08:06:53;0.50;;;0.20;;
40471;SDS011;26174;42.908;23.800;2023-04-25T08:09:19;0.20;;;0.20;;
40471;SDS011;26174;42.908;23.800;2023-04-25T08:11:44;1.25;;;1.15;;
40471;SDS011;26174;42.908;23.800;2023-04-25T08:14:11;4.75;;;2.63;;
40471;SDS011;26174;42.908;23.800;2023-04-25T08:16:37;4.50;;;2.72;;
40471;SDS011;26174;42.908;23.800;2023-04-25T08:19:02;3.72;;;2.78;;
40471;SDS011;26174;42.908;23.800;2023-04-25T08:21:28;8.10;;;3.20;;
40471;SDS011;26174;42.908;23.800;2023-04-25T08:23:53;15.25;;;3.35;;
40471;SDS011;26174;42.908;23.800;2023-04-25T08:26:19;6.50;;;2.70;;
40471;SDS011;26174;42.908;23.800;2023-04-25T08:28:45;7.88;;;3.22;;
40471;SDS011;26174;42.908;23.800;2023-04-25T08:31:11;3.75;;;3.08;;
40471;SDS011;26174;42.908;23.800;2023-04-25T08:33:37;4.90;;;3.45;;
40471;SDS011;26174;42.908;23.800;2023-04-25T08:36:02;8.60;;;3.78;;
40471;SDS011;26174;42.908;23.800;2023-04-25T08:38:28;9.88;;;3.80;;
40471;SDS011;26174;42.908;23.800;2023-04-25T08:40:54;7.72;;;3.67;;
40471;SDS011;26174;42.908;23.800;2023-04-25T08:43:20;6.80;;;3.63;;
40471;SDS011;26174;42.908;23.800;2023-04-25T08:45:46;17.75;;;4.70;;
40471;SDS011;26174;42.908;23.800;2023-04-25T08:48:13;6.03;;;2.92;;
40471;SDS011;26174;42.908;23.800;2023-04-25T08:50:52;6.50;;;3.30;;
40471;SDS011;26174;42.908;23.800;2023-04-25T08:53:21;4.63;;;3.58;;
40471;SDS011;26174;42.908;23.800;2023-04-25T08:55:58;7.93;;;2.92;;
40471;SDS011;26174;42.908;23.800;2023-04-25T08:58:24;3.53;;;2.63;;
40471;SDS011;26174;42.908;23.800;2023-04-25T09:00:50;3.15;;;2.30;;
40471;SDS011;26174;42.908;23.800;2023-04-25T09:03:16;2.13;;;1.88;;
40471;SDS011;26174;42.908;23.800;2023-04-25T09:05:42;2.13;;;1.83;;
40471;SDS011;26174;42.908;23.800;2023-04-25T09:08:08;2.10;;;1.63;;
40471;SDS011;26174;42.908;23.800;2023-04-25T09:10:34;2.45;;;1.73;;
40471;SDS011;26174;42.908;23.800;2023-04-25T09:13:04;8.25;;;1.55;;
40471;SDS011;26174;42.908;23.800;2023-04-25T09:15:31;6.10;;;1.50;;
40471;SDS011;26174;42.908;23.800;2023-04-25T09:17:57;4.18;;;1.80;;
40471;SDS011;26174;42.908;23.800;2023-04-25T09:20:23;5.00;;;1.60;;
40471;SDS011;26174;42.908;23.800;2023-04-25T09:22:49;3.10;;;1.70;;
40471;SDS011;26174;42.908;23.800;2023-04-25T09:25:26;6.38;;;1.88;;
40471;SDS011;26174;42.908;23.800;2023-04-25T09:27:52;2.40;;;1.40;;
40471;SDS011;26174;42.908;23.800;2023-04-25T09:30:26;1.90;;;1.30;;
40471;SDS011;26174;42.908;23.800;2023-04-25T09:33:08;1.90;;;1.55;;
40471;SDS011;26174;42.908;23.800;2023-04-25T09:35:38;2.22;;;1.60;;
40471;SDS011;26174;42.908;23.800;2023-04-25T09:38:08;5.53;;;1.80;;
40471;SDS011;26174;42.908;23.800;2023-04-25T09:40:34;2.75;;;1.50;;
40471;SDS011;26174;42.908;23.800;2023-04-25T09:43:08;2.05;;;1.60;;
40471;SDS011;26174;42.908;23.800;2023-04-25T09:45:46;4.15;;;2.33;;
40471;SDS011;26174;42.908;23.800;2023-04-25T09:48:19;3.55;;;2.70;;
40471;SDS011;26174;42.908;23.800;2023-04-25T09:51:03;4.18;;;2.70;;
40471;SDS011;26174;42.908;23.800;2023-04-25T09:53:31;6.60;;;3.17;;
40471;SDS011;26174;42.908;23.800;2023-04-25T09:55:57;2.03;;;1.55;;
40471;SDS011;26174;42.908;23.800;2023-04-25T09:58:25;2.47;;;1.67;;
40471;SDS011;26174;42.908;23.800;2023-04-25T10:00:52;4.78;;;1.77;;
40471;SDS011;26174;42.908;23.800;2023-04-25T10:03:19;4.18;;;1.50;;
40471;SDS011;26174;42.908;23.800;2023-04-25T10:05:45;1.70;;;1.20;;
40471;SDS011;26174;42.908;23.800;2023-04-25T10:08:12;1.83;;;1.40;;
40471;SDS011;26174;42.908;23.800;2023-04-25T10:10:38;3.40;;;2.30;;
40471;SDS011;26174;42.908;23.800;2023-04-25T10:13:05;5.40;;;2.40;;
40471;SDS011;26174;42.908;23.800;2023-04-25T10:15:32;3.38;;;2.35;;
40471;SDS011;26174;42.908;23.800;2023-04-25T10:18:00;3.30;;;2.53;;
40471;SDS011;26174;42.908;23.800;2023-04-25T10:20:26;5.93;;;2.53;;
40471;SDS011;26174;42.908;23.800;2023-04-25T10:22:51;4.40;;;2.60;;
40471;SDS011;26174;42.908;23.800;2023-04-25T11:13:33;1.52;;;1.42;;
40471;SDS011;26174;42.908;23.800;2023-04-25T11:15:59;2.30;;;1.20;;
40471;SDS011;26174;42.908;23.800;2023-04-25T11:18:26;0.20;;;0.20;;
40471;SDS011;26174;42.908;23.800;2023-04-25T11:20:52;0.30;;;0.20;;
40471;SDS011;26174;42.908;23.800;2023-04-25T11:23:17;0.20;;;0.20;;
40471;SDS011;26174;42.908;23.800;2023-04-25T11:25:43;1.73;;;0.65;;
40471;SDS011;26174;42.908;23.800;2023-04-25T11:28:09;3.65;;;1.67;;
40471;SDS011;26174;42.908;23.800;2023-04-25T11:30:35;1.23;;;0.77;;
40471;SDS011;26174;42.908;23.800;2023-04-25T11:33:00;0.32;;;0.30;;
40471;SDS011;26174;42.908;23.800;2023-04-25T11:35:28;0.93;;;0.82;;
40471;SDS011;26174;42.908;23.800;2023-04-25T11:37:53;3.40;;;1.10;;
40471;SDS011;26174;42.908;23.800;2023-04-25T11:40:19;0.20;;;0.20;;
40471;SDS011;26174;42.908;23.800;2023-04-25T11:42:45;0.38;;;0.38;;
40471;SDS011;26174;42.908;23.800;2023-04-25T11:45:12;1.15;;;0.90;;
40471;SDS011;26174;42.908;23.800;2023-04-25T11:47:38;0.55;;;0.50;;
40471;SDS011;26174;42.908;23.800;2023-04-25T11:50:04;0.28;;;0.28;;
40471;SDS011;26174;42.908;23.800;2023-04-25T11:52:45;0.20;;;0.20;;
40471;SDS011;26174;42.908;23.800;2023-04-25T11:55:15;0.32;;;0.32;;
40471;SDS011;26174;42.908;23.800;2023-04-25T11:57:42;18.45;;;8.43;;
40471;SDS011;26174;42.908;23.800;2023-04-25T12:00:12;3.15;;;1.27;;
40471;SDS011;26174;42.908;23.800;2023-04-25T12:02:45;0.98;;;0.98;;
40471;SDS011;26174;42.908;23.800;2023-04-25T12:05:12;0.20;;;0.20;;
40471;SDS011;26174;42.908;23.800;2023-04-25T12:07:39;1.08;;;0.47;;
40471;SDS011;26174;42.908;23.800;2023-04-25T12:10:15;0.20;;;0.20;;
40471;SDS011;26174;42.908;23.800;2023-04-25T12:12:42;0.47;;;0.30;;
40471;SDS011;26174;42.908;23.800;2023-04-25T12:15:09;0.90;;;0.43;;
40471;SDS011;26174;42.908;23.800;2023-04-25T12:17:36;0.90;;;0.28;;
40471;SDS011;26174;42.908;23.800;2023-04-25T12:20:12;0.03;;;0.03;;
40471;SDS011;26174;42.908;23.800;2023-04-25T12:22:43;0.17;;;0.15;;
40471;SDS011;26174;42.908;23.800;2023-04-25T12:25:11;2.83;;;2.20;;
40471;SDS011;26174;42.908;23.800;2023-04-25T12:27:38;0.20;;;0.20;;
40471;SDS011;26174;42.908;23.800;2023-04-25T12:30:07;2.28;;;1.48;;
40471;SDS011;26174;42.908;23.800;2023-04-25T12:32:33;0.10;;;0.10;;
40471;SDS011;26174;42.908;23.800;2023-04-25T12:34:58;0.00;;;0.00;;
40471;SDS011;26174;42.908;23.800;2023-04-25T12:37:24;0.30;;;0.30;;
40471;SDS011;26174;42.908;23.800;2023-04-25T12:39:49;0.20;;;0.20;;
40471;SDS011;26174;42.908;23.800;2023-04-25T12:42:15;0.10;;;0.10;;
40471;SDS011;26174;42.908;23.800;2023-04-25T12:44:41;3.92;;;0.90;;
40471;SDS011;26174;42.908;23.800;2023-04-25T12:47:07;0.15;;;0.15;;
40471;SDS011;26174;42.908;23.800;2023-04-25T12:49:32;0.20;;;0.20;;
40471;SDS011;26174;42.908;23.800;2023-04-25T12:51:58;0.82;;;0.50;;
40471;SDS011;26174;42.908;23.800;2023-04-25T12:54:24;0.08;;;0.08;;
40471;SDS011;26174;42.908;23.800;2023-04-25T12:56:50;0.75;;;0.40;;
40471;SDS011;26174;42.908;23.800;2023-04-25T12:59:16;0.28;;;0.28;;
40471;SDS011;26174;42.908;23.800;2023-04-25T13:01:42;0.20;;;0.20;;
40471;SDS011;26174;42.908;23.800;2023-04-25T13:04:07;0.10;;;0.10;;
40471;SDS011;26174;42.908;23.800;2023-04-25T13:06:33;2.13;;;0.95;;
40471;SDS011;26174;42.908;23.800;2023-04-25T13:08:58;0.10;;;0.10;;
40471;SDS011;26174;42.908;23.800;2023-04-25T13:11:24;0.10;;;0.10;;
40471;SDS011;26174;42.908;23.800;2023-04-25T13:13:49;0.10;;;0.10;;
40471;SDS011;26174;42.908;23.800;2023-04-25T13:16:15;0.00;;;0.00;;
40471;SDS011;26174;42.908;23.800;2023-04-25T13:18:40;0.73;;;0.40;;
40471;SDS011;26174;42.908;23.800;2023-04-25T13:21:06;0.50;;;0.50;;
40471;SDS011;26174;42.908;23.800;2023-04-25T13:23:32;0.35;;;0.35;;
40471;SDS011;26174;42.908;23.800;2023-04-25T13:25:57;0.13;;;0.13;;
40471;SDS011;26174;42.908;23.800;2023-04-25T13:28:26;0.82;;;0.47;;
40471;SDS011;26174;42.908;23.800;2023-04-25T13:30:52;0.28;;;0.28;;
40471;SDS011;26174;42.908;23.800;2023-04-25T13:33:18;0.55;;;0.20;;
40471;SDS011;26174;42.908;23.800;2023-04-25T13:35:44;0.52;;;0.52;;
40471;SDS011;26174;42.908;23.800;2023-04-25T13:38:18;0.45;;;0.45;;
40471;SDS011;26174;42.908;23.800;2023-04-25T13:40:48;0.10;;;0.10;;
40471;SDS011;26174;42.908;23.800;2023-04-25T13:43:14;0.10;;;0.10;;
40471;SDS011;26174;42.908;23.800;2023-04-25T13:45:39;0.32;;;0.32;;
40471;SDS011;26174;42.908;23.800;2023-04-25T13:48:06;0.57;;;0.50;;
40471;SDS011;26174;42.908;23.800;2023-04-25T13:50:31;0.00;;;0.00;;
40471;SDS011;26174;42.908;23.800;2023-04-25T13:52:57;0.65;;;0.40;;
40471;SDS011;26174;42.908;23.800;2023-04-25T13:55:22;2.80;;;0.30;;
40471;SDS011;26174;42.908;23.800;2023-04-25T13:57:48;1.75;;;0.65;;
40471;SDS011;26174;42.908;23.800;2023-04-25T14:00:13;0.25;;;0.25;;
40471;SDS011;26174;42.908;23.800;2023-04-25T14:02:39;0.00;;;0.00;;
40471;SDS011;26174;42.908;23.800;2023-04-25T14:05:05;0.20;;;0.20;;
40471;SDS011;26174;42.908;23.800;2023-04-25T14:07:32;0.10;;;0.10;;
40471;SDS011;26174;42.908;23.800;2023-04-25T14:10:01;2.72;;;0.80;;
40471;SDS011;26174;42.908;23.800;2023-04-25T14:12:29;0.10;;;0.10;;
40471;SDS011;26174;42.908;23.800;2023-04-25T14:14:54;0.43;;;0.30;;
40471;SDS011;26174;42.908;23.800;2023-04-25T14:17:20;0.30;;;0.30;;
40471;SDS011;26174;42.908;23.800;2023-04-25T14:19:45;0.10;;;0.10;;
40471;SDS011;26174;42.908;23.800;2023-04-25T14:22:13;0.20;;;0.20;;
40471;SDS011;26174;42.908;23.800;2023-04-25T14:24:40;0.50;;;0.45;;
40471;SDS011;26174;42.908;23.800;2023-04-25T14:27:06;0.60;;;0.55;;
40471;SDS011;26174;42.908;23.800;2023-04-25T14:29:31;0.15;;;0.15;;
40471;SDS011;26174;42.908;23.800;2023-04-25T14:31:57;0.70;;;0.50;;
40471;SDS011;26174;42.908;23.800;2023-04-25T14:34:23;0.20;;;0.20;;
40471;SDS011;26174;42.908;23.800;2023-04-25T14:36:49;0.13;;;0.13;;
40471;SDS011;26174;42.908;23.800;2023-04-25T14:39:15;0.35;;;0.30;;
40471;SDS011;26174;42.908;23.800;2023-04-25T14:41:41;0.93;;;0.75;;
40471;SDS011;26174;42.908;23.800;2023-04-25T14:44:07;0.20;;;0.20;;
40471;SDS011;26174;42.908;23.800;2023-04-25T14:46:33;1.85;;;0.65;;
40471;SDS011;26174;42.908;23.800;2023-04-25T14:48:59;0.17;;;0.13;;
40471;SDS011;26174;42.908;23.800;2023-04-25T14:51:24;0.10;;;0.10;;
40471;SDS011;26174;42.908;23.800;2023-04-25T14:53:51;0.05;;;0.05;;
40471;SDS011;26174;42.908;23.800;2023-04-25T14:56:17;0.57;;;0.30;;
40471;SDS011;26174;42.908;23.800;2023-04-25T14:58:43;0.80;;;0.22;;
40471;SDS011;26174;42.908;23.800;2023-04-25T15:01:10;0.55;;;0.45;;
40471;SDS011;26174;42.908;23.800;2023-04-25T15:03:36;0.00;;;0.00;;
40471;SDS011;26174;42.908;23.800;2023-04-25T15:06:02;2.85;;;0.75;;
40471;SDS011;26174;42.908;23.800;2023-04-25T15:08:27;0.25;;;0.25;;
40471;SDS011;26174;42.908;23.800;2023-04-25T15:10:53;0.32;;;0.32;;
40471;SDS011;26174;42.908;23.800;2023-04-25T15:13:18;0.13;;;0.13;;
40471;SDS011;26174;42.908;23.800;2023-04-25T15:15:44;0.35;;;0.30;;
40471;SDS011;26174;42.908;23.800;2023-04-25T15:18:15;0.30;;;0.17;;
40471;SDS011;26174;42.908;23.800;2023-04-25T15:20:42;0.20;;;0.20;;